Time;durP1;ratioP1;P1;durP2;ratioP2;P2;SDS_P1;SDS_P2;PMS_P1;PMS_P2;Temp;Humidity;BMP_temperature;BMP_pressure;BME280_temperature;BME280_humidity;BME280_pressure;Samples;Min_cycle;Max_cycle;Signal;HPM_P1;HPM_P2
2024/01/28 00:02:17;;;;;;;13.00;4.60;;;;;;;4.69;66.51;100695.18;230271;200;153840;-59
2024/01/28 00:07:21;;;;;;;16.60;4.60;;;;;;;4.66;66.38;100699.95;231802;198;137704;-59
2024/01/28 00:12:24;;;;;;;14.00;4.70;;;;;;;4.74;66.35;100711.13;232070;204;138748;-59
2024/01/28 00:17:28;;;;;;;14.60;5.40;;;;;;;4.87;66.09;100715.88;232012;198;153340;-59
2024/01/28 00:22:32;;;;;;;13.50;4.80;;;;;;;4.90;65.60;100721.30;231978;198;138819;-59
2024/01/28 00:27:35;;;;;;;17.20;5.00;;;;;;;4.87;65.55;100731.53;231613;198;138689;-59
2024/01/28 00:32:40;;;;;;;14.40;4.50;;;;;;;4.82;65.39;100727.20;231934;204;153263;-59
2024/01/28 00:37:44;;;;;;;13.60;4.50;;;;;;;4.81;65.40;100722.45;231993;198;138917;-59
2024/01/28 00:42:47;;;;;;;16.30;4.50;;;;;;;4.78;65.33;100724.44;232181;201;139871;-59
2024/01/28 00:47:50;;;;;;;17.40;4.60;;;;;;;4.74;65.35;100726.95;232202;204;154054;-59
2024/01/28 00:52:53;;;;;;;17.60;4.60;;;;;;;4.68;65.39;100731.05;231888;197;138473;-59
2024/01/28 00:57:58;;;;;;;17.60;5.30;;;;;;;4.60;65.56;100735.00;231959;198;138559;-59
2024/01/28 01:03:02;;;;;;;16.70;5.30;;;;;;;4.52;65.69;100740.00;231847;198;155586;-60
2024/01/28 01:08:05;;;;;;;15.70;4.70;;;;;;;4.41;65.87;100736.41;232139;200;138368;-58
2024/01/28 01:13:09;;;;;;;14.30;4.00;;;;;;;4.34;66.20;100746.31;232203;204;137641;-59
2024/01/28 01:18:12;;;;;;;16.90;4.70;;;;;;;4.28;66.40;100749.89;232218;200;153447;-58
2024/01/28 01:23:15;;;;;;;13.70;4.80;;;;;;;4.22;66.77;100750.65;231909;197;138262;-59
2024/01/28 01:28:18;;;;;;;17.10;4.60;;;;;;;4.22;66.81;100748.88;232069;204;138439;-59
2024/01/28 01:33:22;;;;;;;13.20;5.00;;;;;;;4.19;66.99;100746.27;232051;204;153240;-59
2024/01/28 01:38:25;;;;;;;15.90;5.00;;;;;;;4.21;67.12;100748.38;232125;202;138307;-59
2024/01/28 01:43:30;;;;;;;18.10;5.80;;;;;;;4.26;67.14;100751.14;232073;204;138515;-58
2024/01/28 01:48:33;;;;;;;17.70;5.40;;;;;;;4.28;67.17;100748.14;232274;204;153290;-59
2024/01/28 01:53:38;;;;;;;17.90;5.50;;;;;;;4.29;66.98;100751.81;232078;204;137688;-59
2024/01/28 01:58:43;;;;;;;19.20;6.00;;;;;;;4.26;67.15;100752.54;231995;198;138153;-59
2024/01/28 02:03:46;;;;;;;16.40;5.70;;;;;;;4.25;67.14;100752.54;231927;198;154394;-58
2024/01/28 02:08:49;;;;;;;17.50;6.40;;;;;;;4.23;67.31;100751.34;232009;201;137902;-59
2024/01/28 02:13:52;;;;;;;19.00;6.30;;;;;;;4.18;67.61;100749.98;231981;202;138610;-59
2024/01/28 02:18:56;;;;;;;13.70;5.80;;;;;;;4.16;67.85;100752.63;232061;202;153114;-59
2024/01/28 02:23:59;;;;;;;18.80;6.50;;;;;;;4.16;67.92;100755.44;232161;204;138866;-59
2024/01/28 02:29:03;;;;;;;18.50;6.70;;;;;;;4.10;68.15;100765.49;232037;197;140861;-59
2024/01/28 02:34:06;;;;;;;19.10;6.40;;;;;;;4.12;68.35;100767.42;232119;200;153140;-58
2024/01/28 02:39:10;;;;;;;17.00;6.50;;;;;;;4.11;68.57;100772.69;232061;197;138459;-59
2024/01/28 02:44:13;;;;;;;18.60;6.90;;;;;;;4.09;68.81;100771.65;232108;198;138310;-59
2024/01/28 02:49:16;;;;;;;20.10;7.60;;;;;;;4.11;68.95;100773.22;232138;204;153920;-58
2024/01/28 02:54:22;;;;;;;19.30;7.60;;;;;;;4.14;69.15;100774.27;232225;200;138074;-58
2024/01/28 02:59:26;;;;;;;23.00;8.20;;;;;;;4.20;69.11;100776.47;232098;198;138317;-59
2024/01/28 03:04:29;;;;;;;25.60;8.50;;;;;;;4.22;69.40;100773.30;231866;198;154953;-59
2024/01/28 03:09:32;;;;;;;26.20;8.90;;;;;;;4.32;69.20;100777.78;232044;201;137793;-59
2024/01/28 03:14:36;;;;;;;23.30;9.20;;;;;;;4.38;69.44;100779.15;232024;201;138827;-59
2024/01/28 03:19:39;;;;;;;25.10;8.60;;;;;;;4.43;69.26;100779.10;232135;204;154972;-59
2024/01/28 03:24:42;;;;;;;26.50;10.10;;;;;;;4.36;69.58;100789.52;232145;197;138672;-59
2024/01/28 03:29:46;;;;;;;26.20;9.40;;;;;;;4.29;69.89;100795.91;232241;202;140535;-59
2024/01/28 03:34:49;;;;;;;24.50;9.00;;;;;;;4.27;70.35;100802.24;232123;204;153839;-59
2024/01/28 03:39:52;;;;;;;25.80;9.50;;;;;;;4.25;70.60;100803.14;232019;197;139020;-59
2024/01/28 03:44:56;;;;;;;25.90;9.70;;;;;;;4.22;70.81;100810.03;232128;204;137907;-59
2024/01/28 03:49:59;;;;;;;24.20;9.10;;;;;;;4.21;71.23;100804.77;232133;204;152903;-59
2024/01/28 03:55:03;;;;;;;29.10;10.20;;;;;;;4.24;71.51;100800.70;232146;197;141630;-59
2024/01/28 04:00:07;;;;;;;24.50;9.50;;;;;;;4.33;71.60;100809.05;232196;204;138684;-58
2024/01/28 04:05:14;;;;;;;24.00;9.90;;;;;;;4.39;71.59;100812.17;231949;198;163771;-59
2024/01/28 04:10:17;;;;;;;26.20;10.90;;;;;;;4.45;71.63;100818.27;232085;198;137535;-58
2024/01/28 04:15:20;;;;;;;28.30;9.90;;;;;;;4.51;71.92;100819.45;231973;202;138084;-58
2024/01/28 04:20:23;;;;;;;24.20;10.00;;;;;;;4.56;72.02;100822.40;232042;202;153218;-58
2024/01/28 04:25:26;;;;;;;20.80;9.80;;;;;;;4.63;71.96;100823.56;231948;202;138262;-60
2024/01/28 04:30:30;;;;;;;25.70;10.40;;;;;;;4.60;72.08;100835.73;231791;197;138216;-59
2024/01/28 04:35:33;;;;;;;25.50;10.90;;;;;;;4.60;72.48;100838.36;231977;200;153193;-59
2024/01/28 04:40:36;;;;;;;26.40;10.50;;;;;;;4.61;72.61;100838.35;232082;200;138528;-59
2024/01/28 04:45:39;;;;;;;22.40;10.70;;;;;;;4.62;72.72;100842.39;232138;197;139190;-56
2024/01/28 04:50:43;;;;;;;22.50;10.50;;;;;;;4.71;73.03;100843.02;232094;198;153859;-59
2024/01/28 04:55:46;;;;;;;24.30;11.00;;;;;;;4.80;72.96;100843.80;232103;204;138237;-58
2024/01/28 05:00:50;;;;;;;27.40;11.50;;;;;;;4.87;72.90;100852.17;232175;197;138617;-58
2024/01/28 05:05:53;;;;;;;25.50;10.80;;;;;;;4.93;72.77;100859.33;232062;198;153564;-59
2024/01/28 05:10:57;;;;;;;26.50;10.90;;;;;;;4.98;72.73;100867.73;232068;204;138310;-58
2024/01/28 05:16:00;;;;;;;23.00;11.10;;;;;;;5.04;72.58;100872.77;231843;197;138540;-60
2024/01/28 05:21:04;;;;;;;24.90;10.50;;;;;;;5.05;72.55;100878.38;232097;200;152074;-58
2024/01/28 05:26:07;;;;;;;23.20;10.00;;;;;;;5.06;72.55;100882.60;231767;199;138849;-59
2024/01/28 05:31:11;;;;;;;26.40;11.60;;;;;;;5.03;72.64;100891.59;231879;202;138340;-58
2024/01/28 05:36:15;;;;;;;23.10;10.30;;;;;;;4.99;72.79;100893.39;232092;200;153401;-59
2024/01/28 05:41:18;;;;;;;25.50;11.50;;;;;;;5.04;72.99;100895.46;231997;204;138146;-58
2024/01/28 05:46:22;;;;;;;22.60;11.40;;;;;;;5.15;72.88;100900.80;232074;204;141503;-58
2024/01/28 05:51:27;;;;;;;24.10;11.30;;;;;;;5.18;72.87;100896.19;232078;204;153556;-58
2024/01/28 05:56:30;;;;;;;21.70;11.00;;;;;;;5.22;72.96;100904.79;231891;202;138768;-59
2024/01/28 06:01:33;;;;;;;21.60;10.90;;;;;;;5.24;73.15;100909.16;232007;198;138512;-58
2024/01/28 06:06:37;;;;;;;22.20;10.40;;;;;;;5.24;73.22;100912.50;232149;201;153177;-58
2024/01/28 06:11:43;;;;;;;17.00;10.70;;;;;;;5.17;73.38;100916.61;232041;202;138527;-59
2024/01/28 06:16:47;;;;;;;20.40;10.80;;;;;;;5.09;73.68;100921.27;232044;201;137692;-58
2024/01/28 06:21:50;;;;;;;17.20;10.10;;;;;;;5.11;73.95;100924.23;231909;204;153500;-59
2024/01/28 06:26:54;;;;;;;18.60;11.30;;;;;;;5.14;74.09;100926.67;231770;201;138510;-59
2024/01/28 06:31:57;;;;;;;18.80;10.90;;;;;;;5.20;74.07;100922.40;232064;200;138401;-59
2024/01/28 06:37:01;;;;;;;16.50;9.80;;;;;;;5.24;73.98;100927.48;232027;201;155576;-59
2024/01/28 06:42:04;;;;;;;16.60;10.00;;;;;;;5.25;73.82;100931.31;232153;200;138131;-58
2024/01/28 06:47:08;;;;;;;19.70;10.60;;;;;;;5.28;73.89;100932.36;232059;198;138610;-58
2024/01/28 06:52:11;;;;;;;18.40;10.30;;;;;;;5.28;74.04;100929.35;232105;200;154101;-58
2024/01/28 06:57:14;;;;;;;19.40;9.70;;;;;;;5.32;73.88;100930.02;232040;204;137869;-58
2024/01/28 07:02:17;;;;;;;17.40;9.00;;;;;;;5.29;73.84;100934.80;231958;201;138685;-58
2024/01/28 07:07:21;;;;;;;15.80;8.30;;;;;;;5.30;73.86;100933.56;232024;204;153175;-58
2024/01/28 07:12:24;;;;;;;17.00;9.60;;;;;;;5.39;73.90;100938.40;232004;198;138663;-58
2024/01/28 07:17:27;;;;;;;15.80;9.00;;;;;;;5.48;73.85;100938.14;232041;197;138174;-59
2024/01/28 07:22:31;;;;;;;14.80;9.70;;;;;;;5.49;73.79;100939.52;231999;201;153061;-58
2024/01/28 07:27:34;;;;;;;16.00;9.20;;;;;;;5.52;73.85;100944.24;231913;204;138231;-58
2024/01/28 07:32:37;;;;;;;16.80;9.60;;;;;;;5.55;73.71;100958.48;231702;204;138623;-58
2024/01/28 07:37:40;;;;;;;20.50;11.90;;;;;;;5.56;73.90;100965.50;232148;204;153165;-58
2024/01/28 07:42:43;;;;;;;17.40;10.70;;;;;;;5.58;73.82;100970.94;231968;204;140800;-58
2024/01/28 07:47:47;;;;;;;17.50;10.90;;;;;;;5.59;73.68;100968.64;232323;197;138262;-58
2024/01/28 07:52:50;;;;;;;19.10;10.90;;;;;;;5.59;73.72;100969.88;232039;204;153322;-60
2024/01/28 07:57:55;;;;;;;218.40;164.40;;;;;;;5.62;73.93;100973.55;231946;200;138425;-60
2024/01/28 08:02:58;;;;;;;19.60;12.30;;;;;;;5.73;73.78;100967.80;231867;202;138996;-60
2024/01/28 08:08:02;;;;;;;33.10;23.30;;;;;;;5.80;73.29;100962.77;232090;200;153206;-60
2024/01/28 08:13:05;;;;;;;165.20;107.20;;;;;;;5.83;72.98;100964.87;232078;202;138681;-60
2024/01/28 08:18:11;;;;;;;23.00;12.30;;;;;;;5.85;73.08;100974.19;232248;204;138737;-60
2024/01/28 08:23:14;;;;;;;16.40;10.50;;;;;;;5.85;72.89;100982.10;232067;200;153231;-60
2024/01/28 08:28:18;;;;;;;18.30;10.80;;;;;;;5.85;73.16;100983.69;231924;198;138588;-60
2024/01/28 08:33:21;;;;;;;18.90;11.40;;;;;;;5.89;73.73;100983.65;231617;197;137926;-59
2024/01/28 08:38:24;;;;;;;21.70;11.40;;;;;;;5.93;72.95;100985.71;232137;202;153113;-59
2024/01/28 08:43:27;;;;;;;20.60;11.20;;;;;;;5.89;72.93;100984.87;231933;198;137858;-59
2024/01/28 08:48:31;;;;;;;22.30;11.90;;;;;;;5.90;73.06;100990.14;232173;204;138458;-59
2024/01/28 08:53:34;;;;;;;19.30;11.40;;;;;;;5.97;73.00;100991.86;231907;201;153735;-59
2024/01/28 08:58:37;;;;;;;20.50;11.20;;;;;;;6.00;73.05;100993.23;232027;198;142347;-59
2024/01/28 09:03:40;;;;;;;21.30;10.20;;;;;;;6.02;73.25;100996.20;232088;197;138486;-59
2024/01/28 09:08:44;;;;;;;538.40;363.90;;;;;;;6.09;73.54;101002.82;231778;204;153894;-60
2024/01/28 09:13:47;;;;;;;31.00;17.20;;;;;;;6.24;73.72;101011.80;232114;200;137762;-59
2024/01/28 09:18:50;;;;;;;21.60;11.80;;;;;;;6.24;73.18;101011.80;231975;197;139465;-59
2024/01/28 09:23:53;;;;;;;19.60;10.40;;;;;;;6.17;73.13;101008.17;232117;197;154104;-58
2024/01/28 09:28:56;;;;;;;17.10;9.50;;;;;;;6.17;73.14;101014.16;232053;204;137982;-59
2024/01/28 09:34:00;;;;;;;28.10;16.60;;;;;;;6.23;73.31;101012.50;232048;197;138840;-59
2024/01/28 09:39:04;;;;;;;19.10;9.70;;;;;;;6.33;73.15;101020.85;232074;198;153845;-58
2024/01/28 09:44:08;;;;;;;22.20;11.00;;;;;;;6.43;73.24;101025.65;232034;204;138453;-58
2024/01/28 09:49:15;;;;;;;19.40;9.90;;;;;;;6.40;72.88;101028.52;231867;204;138367;-57
2024/01/28 09:54:18;;;;;;;24.90;11.10;;;;;;;6.30;72.92;101020.34;232062;204;153208;-57
2024/01/28 09:59:21;;;;;;;21.80;10.50;;;;;;;6.25;72.79;101022.18;231958;198;138279;-57
2024/01/28 10:04:27;;;;;;;22.80;10.90;;;;;;;6.16;72.95;101026.33;231951;201;138294;-58
2024/01/28 10:09:31;;;;;;;22.20;10.80;;;;;;;6.18;73.05;101027.73;232006;204;153117;-57
2024/01/28 10:14:34;;;;;;;22.10;14.30;;;;;;;6.14;72.95;101030.26;231965;201;138398;-60
2024/01/28 10:19:41;;;;;;;22.80;12.20;;;;;;;6.12;73.23;101034.85;231606;201;138950;-59
2024/01/28 10:24:44;;;;;;;22.10;11.70;;;;;;;6.20;73.41;101030.71;232021;204;153961;-59
2024/01/28 10:29:47;;;;;;;22.80;12.20;;;;;;;6.31;73.14;101026.87;232098;204;137645;-59
2024/01/28 10:34:51;;;;;;;20.50;12.50;;;;;;;6.36;72.88;101027.16;231953;204;139153;-60
2024/01/28 10:40:05;;;;;;;20.20;11.10;;;;;;;6.37;73.09;101027.14;232002;204;153843;-60
2024/01/28 10:45:10;;;;;;;17.90;11.30;;;;;;;6.40;72.94;101021.29;231703;198;142253;-60
2024/01/28 10:50:14;;;;;;;21.80;11.30;;;;;;;6.40;72.65;101010.52;231900;198;138109;-61
2024/01/28 10:55:18;;;;;;;19.00;9.90;;;;;;;6.48;72.54;101005.66;232040;204;154279;-61
2024/01/28 11:00:22;;;;;;;21.60;9.80;;;;;;;6.57;72.54;101003.43;232117;204;138488;-62
2024/01/28 11:05:28;;;;;;;19.50;10.60;;;;;;;6.73;72.78;101006.54;231980;200;138315;-55
2024/01/28 11:10:33;;;;;;;16.00;8.80;;;;;;;6.90;71.86;101013.52;232001;201;154223;-53
2024/01/28 11:15:37;;;;;;;84.50;50.00;;;;;;;6.98;71.82;101014.81;231974;202;138263;-59
2024/01/28 11:20:40;;;;;;;20.00;11.00;;;;;;;7.15;71.86;101009.96;231724;204;138820;-59
2024/01/28 11:25:45;;;;;;;17.00;8.60;;;;;;;7.26;70.93;101010.31;231735;198;155005;-60
2024/01/28 11:30:52;;;;;;;16.20;8.40;;;;;;;7.22;69.80;101012.32;231839;198;139226;-58
2024/01/28 11:35:58;;;;;;;16.10;8.30;;;;;;;7.15;69.52;101019.48;232066;197;138805;-59
2024/01/28 11:41:02;;;;;;;17.60;8.90;;;;;;;7.09;69.57;101023.98;231998;198;153773;-59
2024/01/28 11:46:07;;;;;;;18.00;8.60;;;;;;;7.10;69.71;101027.69;231955;198;139471;-59
2024/01/28 11:51:10;;;;;;;18.60;8.50;;;;;;;7.08;69.32;101027.02;232015;202;138598;-60
2024/01/28 11:56:14;;;;;;;15.20;7.60;;;;;;;6.99;69.66;101029.27;231911;204;152957;-59
2024/01/28 12:01:17;;;;;;;19.60;8.10;;;;;;;6.96;70.02;101031.09;231985;201;138551;-57
2024/01/28 12:06:26;;;;;;;441.20;296.60;;;;;;;7.05;70.10;101022.30;231980;197;139728;-61
2024/01/28 12:11:31;;;;;;;20.90;11.90;;;;;;;7.21;70.34;101025.03;231893;197;153082;-55
2024/01/28 12:16:36;;;;;;;20.60;8.60;;;;;;;7.17;69.22;101032.17;231969;204;140808;-56
2024/01/28 12:21:40;;;;;;;16.60;8.40;;;;;;;7.15;69.28;101031.50;231903;197;138488;-55
2024/01/28 12:26:45;;;;;;;17.40;8.10;;;;;;;7.17;69.61;101030.74;231828;201;152983;-56
2024/01/28 12:31:50;;;;;;;14.10;7.80;;;;;;;7.20;69.47;101030.36;232053;197;138351;-55
2024/01/28 12:36:53;;;;;;;20.50;9.40;;;;;;;7.20;69.02;101033.89;232086;201;138232;-55
2024/01/28 12:41:56;;;;;;;22.10;10.30;;;;;;;7.24;70.14;101033.11;232082;197;153428;-54
2024/01/28 12:47:00;;;;;;;16.70;9.70;;;;;;;7.27;69.12;101032.71;231956;198;138017;-57
2024/01/28 12:52:04;;;;;;;14.60;8.40;;;;;;;7.20;68.72;101032.65;232070;197;142009;-56
2024/01/28 12:57:07;;;;;;;18.20;9.50;;;;;;;7.22;68.55;101032.79;232037;204;153731;-54
2024/01/28 13:02:11;;;;;;;18.30;10.10;;;;;;;7.24;68.14;101026.58;231947;201;138922;-55
2024/01/28 13:07:15;;;;;;;20.50;10.90;;;;;;;7.25;68.09;101028.16;231842;197;138589;-55
2024/01/28 13:12:18;;;;;;;19.90;10.90;;;;;;;7.23;68.04;101033.32;232079;204;152452;-57
2024/01/28 13:17:24;;;;;;;24.60;11.70;;;;;;;7.18;68.30;101037.63;231889;204;138344;-55
2024/01/28 13:22:28;;;;;;;21.40;11.80;;;;;;;7.09;68.54;101037.59;230978;204;138635;-55
2024/01/28 13:27:31;;;;;;;20.50;11.50;;;;;;;7.05;68.88;101042.05;231647;197;153136;-55
2024/01/28 13:32:36;;;;;;;21.60;12.00;;;;;;;7.03;68.85;101041.57;231657;204;138133;-57
2024/01/28 13:37:41;;;;;;;19.70;12.00;;;;;;;7.01;68.96;101047.78;231831;204;137360;-56
2024/01/28 13:42:45;;;;;;;20.20;11.70;;;;;;;6.96;69.06;101048.38;231701;203;154477;-55
2024/01/28 13:47:49;;;;;;;20.80;10.90;;;;;;;6.96;69.14;101047.49;231907;201;138122;-58
2024/01/28 13:52:52;;;;;;;22.80;11.50;;;;;;;6.92;68.90;101052.33;231705;198;138569;-57
2024/01/28 13:57:55;;;;;;;22.00;11.80;;;;;;;6.88;68.94;101057.83;231788;198;154293;-58
2024/01/28 14:02:59;;;;;;;25.30;12.60;;;;;;;6.89;68.84;101057.83;231706;197;139087;-58
2024/01/28 14:08:04;;;;;;;19.30;12.00;;;;;;;6.94;68.88;101064.82;231720;197;139142;-57
2024/01/28 14:13:07;;;;;;;23.80;13.00;;;;;;;6.95;68.77;101065.68;231928;204;153284;-57
2024/01/28 14:18:11;;;;;;;24.90;12.90;;;;;;;6.93;68.78;101061.30;231986;198;138856;-58
2024/01/28 14:23:14;;;;;;;22.90;13.10;;;;;;;6.91;68.91;101063.80;231949;204;138367;-58
2024/01/28 14:28:17;;;;;;;24.80;12.90;;;;;;;6.92;68.56;101059.90;231922;197;153363;-57
2024/01/28 14:33:21;;;;;;;25.10;13.70;;;;;;;6.93;68.61;101064.30;231855;198;138436;-56
2024/01/28 14:38:24;;;;;;;210.20;152.80;;;;;;;6.92;68.59;101063.62;231759;204;138992;-58
2024/01/28 14:43:27;;;;;;;32.50;18.50;;;;;;;6.93;69.48;101063.77;231946;200;153297;-56
2024/01/28 14:48:30;;;;;;;28.00;15.10;;;;;;;6.95;68.98;101060.39;231875;204;139044;-58
2024/01/28 14:53:36;;;;;;;23.30;14.30;;;;;;;6.94;69.09;101067.65;231766;198;142324;-57
2024/01/28 14:58:39;;;;;;;27.90;14.70;;;;;;;6.93;69.11;101071.89;231858;198;154135;-57
2024/01/28 15:03:42;;;;;;;247.10;143.80;;;;;;;6.99;69.49;101069.49;231879;200;138524;-59
2024/01/28 15:08:45;;;;;;;41.00;25.10;;;;;;;7.30;70.67;101064.08;231688;198;139059;-59
2024/01/28 15:13:49;;;;;;;37.20;20.50;;;;;;;7.39;70.21;101063.25;231985;202;155153;-57
2024/01/28 15:18:52;;;;;;;32.00;15.50;;;;;;;7.31;68.63;101069.36;231881;198;139619;-56
2024/01/28 15:23:55;;;;;;;29.10;16.20;;;;;;;7.18;68.30;101067.62;231946;202;138555;-57
2024/01/28 15:28:59;;;;;;;29.40;15.70;;;;;;;7.06;68.34;101065.16;231902;198;153369;-57
2024/01/28 15:34:02;;;;;;;26.80;16.00;;;;;;;7.03;68.45;101063.98;231849;201;139323;-59
2024/01/28 15:39:07;;;;;;;27.80;16.20;;;;;;;6.98;68.36;101064.58;231976;204;139508;-59
2024/01/28 15:44:10;;;;;;;30.70;16.40;;;;;;;6.95;68.45;101071.33;231960;197;153840;-58
2024/01/28 15:49:13;;;;;;;39.30;24.30;;;;;;;6.96;69.51;101075.55;231970;201;139790;-58
2024/01/28 15:54:17;;;;;;;28.30;15.70;;;;;;;7.02;68.60;101077.94;232116;204;138270;-59
2024/01/28 15:59:20;;;;;;;30.40;14.80;;;;;;;6.97;68.17;101081.88;231852;198;152278;-58
2024/01/28 16:04:24;;;;;;;28.00;15.00;;;;;;;6.95;68.20;101080.69;231799;197;138772;-59
2024/01/28 16:09:27;;;;;;;23.00;13.80;;;;;;;6.98;68.22;101077.48;232003;198;137991;-58
2024/01/28 16:14:40;;;;;;;26.80;15.00;;;;;;;7.03;68.08;101080.39;231683;198;153335;-59
2024/01/28 16:19:47;;;;;;;26.30;15.70;;;;;;;7.08;67.93;101075.54;231938;198;137317;-60
2024/01/28 16:24:50;;;;;;;46.30;27.10;;;;;;;7.19;69.30;101078.90;232021;204;138833;-60
2024/01/28 16:29:54;;;;;;;24.20;15.50;;;;;;;7.45;68.63;101078.86;232023;204;153200;-59
2024/01/28 16:34:57;;;;;;;34.10;16.90;;;;;;;7.34;67.52;101080.09;231912;204;138786;-59
2024/01/28 16:40:01;;;;;;;23.90;15.00;;;;;;;7.24;67.37;101080.59;231939;197;138577;-60
2024/01/28 16:45:05;;;;;;;27.20;14.90;;;;;;;7.16;67.48;101084.98;231874;197;153804;-60
2024/01/28 16:50:08;;;;;;;27.20;15.20;;;;;;;7.09;67.37;101086.13;231916;201;140129;-58
2024/01/28 16:55:16;;;;;;;25.50;14.60;;;;;;;7.02;67.43;101090.47;231992;204;137492;-58
2024/01/28 17:00:19;;;;;;;23.50;14.80;;;;;;;6.97;67.47;101084.36;231943;197;153371;-59
2024/01/28 17:05:22;;;;;;;76.80;48.90;;;;;;;6.87;68.12;101086.45;231810;201;138820;-63
2024/01/28 17:10:27;;;;;;;26.40;14.20;;;;;;;6.94;68.33;101087.05;231748;198;139000;-62
2024/01/28 17:15:33;;;;;;;26.90;15.20;;;;;;;6.97;67.85;101087.36;231765;198;153953;-62
2024/01/28 17:20:37;;;;;;;25.60;15.90;;;;;;;7.02;67.68;101084.46;231866;204;138215;-63
2024/01/28 17:25:40;;;;;;;29.80;14.50;;;;;;;7.03;67.51;101086.55;231894;197;137764;-61
2024/01/28 17:30:43;;;;;;;24.30;15.20;;;;;;;7.06;67.65;101091.64;231971;198;153886;-62
2024/01/28 17:35:47;;;;;;;26.30;15.20;;;;;;;7.05;68.12;101091.84;231751;199;139359;-61
2024/01/28 17:40:52;;;;;;;25.40;16.00;;;;;;;7.01;68.29;101092.95;231752;198;139311;-62
2024/01/28 17:45:56;;;;;;;27.00;15.60;;;;;;;6.97;68.59;101094.95;231758;198;153282;-61
2024/01/28 17:50:59;;;;;;;25.90;16.40;;;;;;;6.92;68.78;101099.26;231744;197;138677;-63
2024/01/28 17:56:03;;;;;;;30.30;16.10;;;;;;;6.87;68.94;101101.80;231696;202;138663;-61
2024/01/28 18:01:07;;;;;;;28.20;16.80;;;;;;;6.85;69.09;101105.52;231834;197;153137;-62
2024/01/28 18:06:12;;;;;;;26.10;16.80;;;;;;;6.81;69.32;101104.52;231902;197;137272;-57
2024/01/28 18:11:16;;;;;;;44.10;25.80;;;;;;;6.85;70.83;101097.23;231847;197;141545;-58
2024/01/28 18:16:21;;;;;;;29.60;17.50;;;;;;;6.94;69.67;101094.29;231817;198;153181;-59
2024/01/28 18:21:25;;;;;;;33.40;18.30;;;;;;;6.91;69.24;101091.69;231824;198;138716;-59
2024/01/28 18:26:29;;;;;;;30.70;18.50;;;;;;;6.90;69.04;101097.16;231794;198;139528;-60
2024/01/28 18:31:32;;;;;;;28.40;17.70;;;;;;;6.85;68.96;101095.64;231687;202;156090;-59
2024/01/28 18:36:35;;;;;;;32.30;18.00;;;;;;;6.86;68.86;101096.86;231844;198;138557;-59
2024/01/28 18:41:38;;;;;;;31.60;18.70;;;;;;;6.87;68.84;101102.31;230999;197;137986;-59
2024/01/28 18:46:42;;;;;;;32.00;18.80;;;;;;;6.83;69.05;101102.72;231766;202;154336;-59
2024/01/28 18:51:45;;;;;;;34.10;18.90;;;;;;;6.76;69.40;101101.76;231658;198;138475;-60
2024/01/28 18:56:48;;;;;;;33.10;19.50;;;;;;;6.71;69.40;101097.94;231786;198;138457;-60
2024/01/28 19:01:51;;;;;;;31.60;18.90;;;;;;;6.64;69.60;101092.04;231890;204;154429;-58
2024/01/28 19:06:55;;;;;;;34.10;18.70;;;;;;;6.60;69.75;101091.38;231924;202;138427;-57
2024/01/28 19:11:58;;;;;;;48.30;28.00;;;;;;;6.68;71.32;101093.75;231859;197;137776;-57
2024/01/28 19:17:04;;;;;;;;;;;;;;;6.85;70.38;101091.05;231949;204;153252;-59
2024/01/28 19:22:08;;;;;;;33.80;19.80;;;;;;;6.79;69.83;101089.55;231588;203;138369;-59
2024/01/28 19:27:11;;;;;;;35.70;21.00;;;;;;;6.73;69.58;101086.45;231770;202;138887;-58
2024/01/28 19:32:15;;;;;;;34.50;21.20;;;;;;;6.69;69.86;101089.34;231584;197;153363;-57
2024/01/28 19:37:18;;;;;;;35.50;22.00;;;;;;;6.68;69.85;101087.23;231879;198;138206;-60
2024/01/28 19:42:23;;;;;;;40.00;22.00;;;;;;;6.69;69.93;101089.34;232039;202;138247;-58
2024/01/28 19:47:27;;;;;;;39.60;21.60;;;;;;;6.69;69.70;101096.04;231854;198;153175;-58
2024/01/28 19:52:30;;;;;;;30.60;19.60;;;;;;;6.62;69.74;101095.06;231817;201;138243;-59
2024/01/28 19:57:33;;;;;;;32.90;18.50;;;;;;;6.59;70.02;101095.81;231730;198;138659;-61
2024/01/28 20:02:37;;;;;;;30.90;18.00;;;;;;;6.56;70.27;101093.90;231767;204;154178;-58
2024/01/28 20:07:40;;;;;;;29.10;17.70;;;;;;;6.54;70.30;101097.63;231726;204;138372;-60
2024/01/28 20:12:44;;;;;;;30.20;17.30;;;;;;;6.50;70.44;101102.79;232180;208;138333;-64
2024/01/28 20:17:48;;;;;;;32.80;19.00;;;;;;;6.49;70.72;101097.69;231706;197;153103;-59
2024/01/28 20:22:51;;;;;;;272.40;208.70;;;;;;;6.54;70.69;101096.58;231679;198;138506;-59
2024/01/28 20:27:54;;;;;;;41.50;22.00;;;;;;;6.71;71.32;101089.48;231934;204;138785;-60
2024/01/28 20:32:59;;;;;;;36.50;21.70;;;;;;;6.80;70.76;101086.73;231736;201;153013;-61
2024/01/28 20:38:03;;;;;;;36.60;21.10;;;;;;;6.73;70.37;101083.29;231910;201;140420;-60
2024/01/28 20:43:06;;;;;;;118.30;66.30;;;;;;;6.67;70.78;101083.71;231789;204;138259;-59
2024/01/28 20:48:09;;;;;;;41.10;24.50;;;;;;;6.71;70.71;101081.01;231912;204;153760;-59
2024/01/28 20:53:13;;;;;;;37.20;24.30;;;;;;;6.66;70.54;101078.79;231680;199;139722;-59
2024/01/28 20:58:16;;;;;;;37.60;24.00;;;;;;;6.68;70.59;101077.00;231636;198;138272;-58
2024/01/28 21:03:19;;;;;;;42.00;26.10;;;;;;;6.67;70.47;101078.26;231733;198;153379;-58
2024/01/28 21:08:23;;;;;;;46.20;27.20;;;;;;;6.70;71.57;101079.09;231866;197;138851;-58
2024/01/28 21:13:26;;;;;;;36.70;23.10;;;;;;;6.72;70.73;101086.64;231925;204;138951;-58
2024/01/28 21:18:29;;;;;;;45.30;28.10;;;;;;;6.74;70.63;101087.33;231913;202;154341;-59
2024/01/28 21:23:33;;;;;;;48.00;28.90;;;;;;;6.84;70.04;101075.89;231731;204;137871;-59
2024/01/28 21:28:36;;;;;;;43.70;27.50;;;;;;;6.87;69.55;101071.98;231865;200;138242;-59
2024/01/28 21:33:39;;;;;;;44.10;28.20;;;;;;;6.83;69.27;101068.48;231853;204;152571;-58
2024/01/28 21:38:43;;;;;;;43.20;28.40;;;;;;;6.79;69.27;101066.27;231756;197;137954;-61
2024/01/28 21:43:46;;;;;;;44.70;27.60;;;;;;;6.72;69.17;101071.82;231891;200;138492;-59
2024/01/28 21:48:50;;;;;;;63.10;38.30;;;;;;;6.70;69.69;101064.28;231875;201;153380;-58
2024/01/28 21:53:53;;;;;;;46.20;28.40;;;;;;;6.74;68.62;101064.38;232000;198;137621;-58
2024/01/28 21:58:56;;;;;;;52.50;33.20;;;;;;;6.69;68.25;101063.05;231839;201;138928;-58
2024/01/28 22:04:00;;;;;;;39.00;25.20;;;;;;;6.74;67.52;101066.52;231907;198;155316;-60
2024/01/28 22:09:03;;;;;;;36.50;22.10;;;;;;;6.70;67.12;101073.10;231794;197;141513;-61
2024/01/28 22:14:07;;;;;;;31.40;19.90;;;;;;;6.61;66.12;101072.15;231975;201;138095;-61
2024/01/28 22:19:10;;;;;;;34.30;20.70;;;;;;;6.51;65.79;101082.68;231855;198;153965;-61
2024/01/28 22:24:13;;;;;;;35.90;20.90;;;;;;;6.46;65.79;101081.69;232023;204;138090;-61
2024/01/28 22:29:16;;;;;;;35.90;21.40;;;;;;;6.37;66.07;101070.67;231774;197;139575;-61
2024/01/28 22:34:20;;;;;;;37.20;21.50;;;;;;;6.30;66.37;101075.35;231797;202;155119;-61
2024/01/28 22:39:25;;;;;;;;;;;;;;;6.23;66.54;101085.30;231875;197;142345;-61
2024/01/28 22:44:29;;;;;;;35.10;22.30;;;;;;;6.21;66.81;101083.40;232014;202;138398;-60
2024/01/28 22:49:35;;;;;;;31.80;20.50;;;;;;;6.15;66.59;101083.80;232054;204;153228;-61
2024/01/28 22:54:38;;;;;;;33.20;20.20;;;;;;;6.11;66.47;101085.96;231722;202;138767;-63
2024/01/28 22:59:41;;;;;;;33.00;20.10;;;;;;;6.02;66.50;101075.30;231957;204;138311;-62
2024/01/28 23:04:45;;;;;;;31.80;20.60;;;;;;;5.94;66.62;101071.15;231559;198;153048;-62